Columbia Highway — 3EQO8 — position and weather

sailwx.info

Track history (hours):
 
Tides and Currents Weather Stations Pressure Air Temp Water Temp Dewpoint Dewpoint Depression Visibility Wind Speed Wind Dir Waves Ship Positions

Columbia Highway

Last reported at 2017-Oct-16 01:51 UTC. Time now 2017-Oct-18 11:34 UTC.
Position N 46°59' W 006°55'.

Length 199 m; draft 9.2 m.

Type: Cargo ship. MMSI: 371172000.

Date/timePositionNaut miles runAvg speedWind from/ knotsBaromVisibWave heightAir tempDewpointWater temp
2017-Oct-16 01:51N 46°59' W 006°55'515.3
2017-Oct-16 01:30N 47°04' W 006°53'815.4
2017-Oct-16 01:01N 47°12' W 006°51'815.2
2017-Oct-16 00:30N 47°19' W 006°48'1214.8
2017-Oct-15 23:42N 47°30' W 006°41'314.4
2017-Oct-15 23:30N 47°33' W 006°40'714.5
2017-Oct-15 23:01N 47°40' W 006°37'714.3
2017-Oct-15 22:31N 47°46' W 006°34'714.7
2017-Oct-15 22:01N 47°54' W 006°31'815.1
2017-Oct-15 21:31N 48°01' W 006°27'815.4
2017-Oct-15 21:01N 48°08' W 006°24'815.9
2017-Oct-15 20:31N 48°16' W 006°21'816.1
2017-Oct-15 20:01N 48°23' W 006°17'916.5
2017-Oct-15 19:28N 48°32' W 006°13'1316.5
2017-Oct-15 18:41N 48°44' W 006°07'816.6
2017-Oct-15 18:11N 48°52' W 006°04'416.8
2017-Oct-15 17:57N 48°56' W 006°02'5015.3
2017-Oct-15 14:39N 49°29' W 005°04'1014.8
2017-Oct-15 14:01N 49°34' W 004°51'815.1
2017-Oct-15 13:30N 49°37' W 004°40'815.3
2017-Oct-15 13:01N 49°41' W 004°30'915.5
2017-Oct-15 12:27N 49°45' W 004°18'715.7
2017-Oct-15 12:00N 49°47' W 004°08'916.1
2017-Oct-15 11:28N 49°51' W 003°56'716.4
2017-Oct-15 11:00N 49°53' W 003°45'816.9
2017-Oct-15 10:30N 49°54' W 003°32'917.1
2017-Oct-15 10:00N 49°56' W 003°19'917.3
2017-Oct-15 09:30N 49°58' W 003°06'917.3
2017-Oct-15 09:00N 49°59' W 002°52'917.5
2017-Oct-15 08:30N 50°02' W 002°39'917.2
2017-Oct-15 08:01N 50°04' W 002°26'816.7
2017-Oct-15 07:31N 50°06' W 002°14'816.0
2017-Oct-15 06:59N 50°08' W 002°01'915.3
2017-Oct-15 06:24N 50°11' W 001°48'614.8
2017-Oct-15 06:00N 50°12' W 001°39'714.5
2017-Oct-15 05:30N 50°14' W 001°28'813.9
2017-Oct-15 04:55N 50°16' W 001°16'613.9
2017-Oct-15 04:30N 50°17' W 001°07'714.1
2017-Oct-15 04:00N 50°19' W 000°56'714.6
2017-Oct-15 03:30N 50°21' W 000°45'714.9
2017-Oct-15 03:00N 50°23' W 000°34'815.4
2017-Oct-15 02:30N 50°25' W 000°22'816.0
2017-Oct-15 02:00N 50°27' W 000°10'816.7
2017-Oct-15 01:30N 50°29' E 000°03'917.1
2017-Oct-15 01:00N 50°31' E 000°16'917.4
2017-Oct-15 00:30N 50°34' E 000°29'917.2
2017-Oct-15 00:00N 50°39' E 000°40'917.5
2017-Oct-14 23:30N 50°44' E 000°50'816.0
2017-Oct-14 23:00N 50°50' E 000°60'714.0
2017-Oct-14 22:30N 50°54' E 001°08'713.4
2017-Oct-14 22:00N 50°59' E 001°16'612.9
2017-Oct-14 21:30N 51°03' E 001°24'612.4
2017-Oct-14 21:00N 51°06' E 001°32'612.1
2017-Oct-14 20:30N 51°10' E 001°39'612.0
2017-Oct-14 20:00N 51°14' E 001°47'612.2
2017-Oct-14 19:30N 51°19' E 001°52'612.5
2017-Oct-14 19:00N 51°25' E 001°57'713.1
2017-Oct-14 18:30N 51°30' E 002°04'815.2
2017-Oct-14 18:00N 51°35' E 002°12'816.1
2017-Oct-14 17:30N 51°42' E 002°20'917.3
2017-Oct-14 17:00N 51°49' E 002°28'917.6
2017-Oct-14 16:30N 51°56' E 002°38'917.7
2017-Oct-14 16:00N 52°02' E 002°47'917.6
2017-Oct-14 15:30N 52°09' E 002°56'917.5
2017-Oct-14 15:00N 52°16' E 003°05'917.1
2017-Oct-14 14:30N 52°22' E 003°14'916.8
2017-Oct-14 14:00N 52°30' E 003°21'816.3
2017-Oct-14 13:29N 52°36' E 003°29'816.0
2017-Oct-14 13:00N 52°42' E 003°37'815.7
2017-Oct-14 12:30N 52°48' E 003°46'815.5
2017-Oct-14 12:00N 52°54' E 003°54'815.3
2017-Oct-14 11:30N 52°59' E 004°04'815.1
2017-Oct-14 11:00N 53°04' E 004°13'815.1
2017-Oct-14 10:30N 53°09' E 004°22'714.8
2017-Oct-14 10:00N 53°16' E 004°28'815.5
2017-Oct-14 09:30N 53°23' E 004°33'815.4
2017-Oct-14 09:00N 53°29' E 004°40'816.2
2017-Oct-14 08:30N 53°32' E 004°53'816.5
2017-Oct-14 08:00N 53°36' E 005°06'916.5
2017-Oct-14 07:29N 53°39' E 005°19'816.5
2017-Oct-14 06:59N 53°41' E 005°33'4212.9
2017-Oct-14 03:43N 53°33' E 006°42'313.2
2017-Oct-14 03:30N 53°31' E 006°46'612.4
2017-Oct-14 03:00N 53°27' E 006°53'510.1
2017-Oct-14 02:30N 53°23' E 006°58'4 8.0
2017-Oct-14 02:00N 53°19' E 007°02'4 8.0
2017-Oct-14 01:30N 53°20' E 007°09'1 1.0
2017-Oct-14 01:00N 53°20' E 007°10'0 0.0
2017-Oct-14 00:30N 53°20' E 007°10'0 0.0
2017-Oct-14 00:00N 53°20' E 007°10'0 0.0
2017-Oct-13 23:27N 53°20' E 007°10'0 0.0
2017-Oct-13 23:00N 53°20' E 007°10'0 0.0
2017-Oct-13 22:30N 53°20' E 007°10'0 0.0
2017-Oct-13 22:00N 53°20' E 007°10'0 0.0
2017-Oct-13 21:30N 53°20' E 007°10'0 0.0
2017-Oct-13 21:00N 53°20' E 007°10'0 0.0
2017-Oct-13 20:30N 53°20' E 007°10'0 0.0
2017-Oct-13 20:00N 53°20' E 007°10'0 0.0
2017-Oct-13 19:30N 53°20' E 007°10'0 0.0
2017-Oct-13 19:00N 53°20' E 007°10'0 0.0
2017-Oct-13 18:30N 53°20' E 007°10'0 0.0
2017-Oct-13 18:00N 53°20' E 007°10'0 0.0
2017-Oct-13 17:30N 53°20' E 007°10'0 0.0
2017-Oct-13 17:00N 53°20' E 007°10'0 0.0
2017-Oct-13 16:30N 53°20' E 007°10'0 0.0
2017-Oct-13 16:00N 53°20' E 007°10'0 0.0
2017-Oct-13 15:30N 53°20' E 007°10'0 0.0
2017-Oct-13 15:00N 53°20' E 007°10'0 0.0
2017-Oct-13 14:30N 53°20' E 007°10'0 0.0
2017-Oct-13 13:57N 53°20' E 007°10'0 0.0
2017-Oct-13 13:27N 53°20' E 007°10'0 0.0
2017-Oct-13 13:00N 53°20' E 007°10'0 0.0
2017-Oct-13 12:30N 53°20' E 007°10'0 0.0
2017-Oct-13 12:00N 53°20' E 007°10'0 0.0
2017-Oct-13 11:27N 53°20' E 007°10'0 0.0
2017-Oct-13 11:00N 53°20' E 007°10'0 0.0
2017-Oct-13 10:30N 53°20' E 007°10'0 0.0
2017-Oct-13 10:00N 53°20' E 007°10'0 0.0
2017-Oct-13 09:30N 53°20' E 007°10'0 0.0
2017-Oct-13 09:00N 53°20' E 007°10'0 0.0
2017-Oct-13 08:30N 53°20' E 007°10'0 0.0
2017-Oct-13 08:00N 53°20' E 007°10'0 0.0
2017-Oct-13 07:30N 53°20' E 007°10'0 0.0
2017-Oct-13 07:00N 53°20' E 007°10'0 0.0
2017-Oct-13 06:27N 53°20' E 007°10'0 0.0
2017-Oct-13 06:00N 53°20' E 007°10'0 0.0
2017-Oct-13 05:30N 53°20' E 007°10'0 0.0
2017-Oct-13 05:00N 53°20' E 007°10'0 0.0
2017-Oct-13 04:30N 53°20' E 007°10'0 0.0
2017-Oct-13 03:57N 53°20' E 007°10'0 0.0
2017-Oct-13 03:30N 53°20' E 007°10'0 0.0
2017-Oct-13 03:00N 53°20' E 007°10'0 0.0
2017-Oct-13 02:30N 53°20' E 007°10'0 0.0
2017-Oct-13 01:57N 53°20' E 007°10'0 0.0
2017-Oct-13 01:30N 53°20' E 007°10'0 0.0
2017-Oct-13 01:00N 53°20' E 007°10'0 0.0
2017-Oct-13 00:30N 53°20' E 007°10'0 0.0
2017-Oct-13 00:00N 53°20' E 007°10'0 0.0
2017-Oct-12 23:30N 53°20' E 007°10'0 0.0
2017-Oct-12 23:00N 53°20' E 007°10'0 0.0
2017-Oct-12 22:30N 53°20' E 007°10'0 0.0
2017-Oct-12 22:00N 53°20' E 007°10'0 0.0
2017-Oct-12 21:30N 53°20' E 007°10'0 0.0
2017-Oct-12 21:00N 53°20' E 007°10'0 0.0
2017-Oct-12 20:30N 53°20' E 007°10'0 0.0
2017-Oct-12 20:00N 53°20' E 007°10'0 0.0
2017-Oct-12 19:30N 53°20' E 007°10'0 0.0
2017-Oct-12 19:00N 53°20' E 007°10'0 0.0
2017-Oct-12 18:30N 53°20' E 007°10'0 0.0
2017-Oct-12 18:00N 53°20' E 007°10'0 0.0
2017-Oct-12 17:27N 53°20' E 007°10'0 0.0
2017-Oct-12 17:00N 53°20' E 007°10'0 0.0
2017-Oct-12 16:30N 53°20' E 007°10'0 0.0
2017-Oct-12 16:00N 53°20' E 007°10'0 0.0
2017-Oct-12 15:30N 53°20' E 007°10'0 0.0
2017-Oct-12 15:00N 53°20' E 007°10'0 0.0
2017-Oct-12 14:30N 53°20' E 007°10'0 0.0
2017-Oct-12 14:00N 53°20' E 007°10'0 0.0
2017-Oct-12 13:30N 53°20' E 007°10'0 0.0
2017-Oct-12 12:57N 53°20' E 007°10'0 0.0
2017-Oct-12 12:30N 53°20' E 007°10'0 0.0
2017-Oct-12 11:51N 53°20' E 007°10'0 0.0
2017-Oct-12 11:30N 53°20' E 007°10'0 0.0
2017-Oct-12 11:00N 53°20' E 007°10'0 0.0
2017-Oct-12 10:30N 53°20' E 007°10'0 0.0
2017-Oct-12 10:00N 53°20' E 007°10'0 0.0
2017-Oct-12 09:30N 53°20' E 007°10'0 0.0
2017-Oct-12 09:00N 53°20' E 007°10'0 0.0
2017-Oct-12 08:30N 53°20' E 007°10'0 0.0
2017-Oct-12 07:57N 53°20' E 007°10'0 0.0
2017-Oct-12 07:30N 53°20' E 007°10'0 0.0
2017-Oct-12 07:00N 53°20' E 007°10'0 0.0
2017-Oct-12 06:30N 53°20' E 007°10'0 0.0
2017-Oct-12 06:00N 53°20' E 007°10'0 0.0
2017-Oct-12 05:27N 53°20' E 007°10'0 0.0
2017-Oct-12 05:00N 53°20' E 007°10'0 0.0
2017-Oct-12 04:27N 53°20' E 007°10'0 0.0
2017-Oct-12 04:00N 53°20' E 007°10'0 0.0
2017-Oct-12 03:30N 53°20' E 007°10'0 0.2
2017-Oct-12 03:00N 53°20' E 007°10'3 6.7
2017-Oct-12 02:31N 53°20' E 007°04'4 8.9
2017-Oct-12 02:00N 53°22' E 006°58'510.7
2017-Oct-12 01:31N 53°27' E 006°54'611.1
2017-Oct-12 01:01N 53°31' E 006°47'45 1.4
2017-Oct-10 17:10N 53°35' E 005°32'315.9
2017-Oct-10 16:59N 53°35' E 005°27'815.7
2017-Oct-10 16:30N 53°32' E 005°16'815.8
2017-Oct-10 16:00N 53°28' E 005°04'815.8
2017-Oct-10 15:30N 53°26' E 004°51'715.0
2017-Oct-10 15:00N 53°22' E 004°41'1615.8
2017-Oct-10 14:00N 53°07' E 004°29'815.8
2017-Oct-10 13:30N 53°01' E 004°23'815.8
2017-Oct-10 13:00N 52°53' E 004°17'815.7
2017-Oct-10 12:30N 52°47' E 004°10'815.7
2017-Oct-10 12:00N 52°41' E 004°01'815.6
2017-Oct-10 11:30N 52°35' E 003°52'815.6
2017-Oct-10 11:00N 52°30' E 003°44'1115.6
2017-Oct-10 10:19N 52°22' E 003°32'5615.2
2017-Oct-10 06:39N 51°41' E 002°29'214.5
2017-Oct-10 06:29N 51°39' E 002°27'714.7
2017-Oct-10 06:01N 51°34' E 002°19'815.1
2017-Oct-10 05:31N 51°28' E 002°11'714.3
2017-Oct-10 05:00N 51°22' E 002°08'714.0
2017-Oct-10 04:31N 51°15' E 002°07'815.8
2017-Oct-10 04:00N 51°11' E 001°56'816.0
2017-Oct-10 03:31N 51°06' E 001°45'816.2
2017-Oct-10 03:01N 51°00' E 001°36'816.6
2017-Oct-10 02:30N 50°54' E 001°28'816.2
2017-Oct-10 02:00N 50°46' E 001°24'816.4
2017-Oct-10 01:30N 50°39' E 001°18'1018.6
2017-Oct-10 00:58N 50°32' E 001°06'918.2
2017-Oct-10 00:30N 50°28' E 000°54'918.8
2017-Oct-10 00:00N 50°25' E 000°40'919.3
2017-Oct-09 23:31N 50°23' E 000°26'1019.7
2017-Oct-09 23:00N 50°21' E 000°11'1019.6
2017-Oct-09 22:31N 50°17' W 000°03'1019.7
2017-Oct-09 22:01N 50°15' W 000°18'8417.3
2017-Oct-09 17:08N 49°53' W 002°26'514.2
2017-Oct-09 16:47N 49°52' W 002°33'414.1
2017-Oct-09 16:29N 49°51' W 002°39'714.3
2017-Oct-09 16:00N 49°49' W 002°49'714.5
2017-Oct-09 15:30N 49°47' W 003°00'714.8
2017-Oct-09 15:00N 49°46' W 003°11'715.0
2017-Oct-09 14:31N 49°45' W 003°23'815.2
2017-Oct-09 13:58N 49°44' W 003°35'715.3
2017-Oct-09 13:30N 49°43' W 003°46'815.4
2017-Oct-09 12:59N 49°42' W 003°59'815.5
2017-Oct-09 12:29N 49°41' W 004°11'715.5
2017-Oct-09 12:00N 49°40' W 004°22'815.7
2017-Oct-09 11:30N 49°39' W 004°34'815.9
2017-Oct-09 11:00N 49°39' W 004°46'816.1
2017-Oct-09 10:30N 49°37' W 004°59'816.6
2017-Oct-09 10:00N 49°37' W 005°11'917.0
2017-Oct-09 09:30N 49°37' W 005°25'1017.3
2017-Oct-09 08:55N 49°37' W 005°40'1117.5
2017-Oct-09 08:18N 49°37' W 005°57'617.8
2017-Oct-09 07:57N 49°37' W 006°06'1217.7
2017-Oct-09 07:16N 49°37' W 006°25'717.6
2017-Oct-09 06:53N 49°37' W 006°35'818.0
2017-Oct-09 06:26N 49°35' W 006°48'817.9
2017-Oct-09 06:00N 49°34' W 006°59'917.9
2017-Oct-09 05:29N 49°32' W 007°13'917.7
2017-Oct-09 05:00N 49°30' W 007°26'917.7
2017-Oct-09 04:29N 49°28' W 007°40'  
Track history (hours):
 
Tides and Currents Weather Stations Pressure Air Temp Water Temp Dewpoint Dewpoint Depression Visibility Wind Speed Wind Dir Waves Ship Positions

Columbia Highway

Last reported at 2017-Oct-16 01:51 UTC. Time now 2017-Oct-18 11:34 UTC.
Position N 46°59' W 006°55'.

Length 199 m; draft 9.2 m.

Type: Cargo ship. MMSI: 371172000.

Date/timePositionNaut miles runAvg speedWind from/ knotsBaromVisibWave heightAir tempDewpointWater temp
2017-Oct-16 01:51N 46°59' W 006°55'515.3
2017-Oct-16 01:30N 47°04' W 006°53'815.4
2017-Oct-16 01:01N 47°12' W 006°51'815.2
2017-Oct-16 00:30N 47°19' W 006°48'1214.8
2017-Oct-15 23:42N 47°30' W 006°41'314.4
2017-Oct-15 23:30N 47°33' W 006°40'714.5
2017-Oct-15 23:01N 47°40' W 006°37'714.3
2017-Oct-15 22:31N 47°46' W 006°34'714.7
2017-Oct-15 22:01N 47°54' W 006°31'815.1
2017-Oct-15 21:31N 48°01' W 006°27'815.4
2017-Oct-15 21:01N 48°08' W 006°24'815.9
2017-Oct-15 20:31N 48°16' W 006°21'816.1
2017-Oct-15 20:01N 48°23' W 006°17'916.5
2017-Oct-15 19:28N 48°32' W 006°13'1316.5
2017-Oct-15 18:41N 48°44' W 006°07'816.6
2017-Oct-15 18:11N 48°52' W 006°04'416.8
2017-Oct-15 17:57N 48°56' W 006°02'5015.3
2017-Oct-15 14:39N 49°29' W 005°04'1014.8
2017-Oct-15 14:01N 49°34' W 004°51'815.1
2017-Oct-15 13:30N 49°37' W 004°40'815.3
2017-Oct-15 13:01N 49°41' W 004°30'915.5
2017-Oct-15 12:27N 49°45' W 004°18'715.7
2017-Oct-15 12:00N 49°47' W 004°08'916.1
2017-Oct-15 11:28N 49°51' W 003°56'716.4
2017-Oct-15 11:00N 49°53' W 003°45'816.9
2017-Oct-15 10:30N 49°54' W 003°32'917.1
2017-Oct-15 10:00N 49°56' W 003°19'917.3
2017-Oct-15 09:30N 49°58' W 003°06'917.3
2017-Oct-15 09:00N 49°59' W 002°52'917.5
2017-Oct-15 08:30N 50°02' W 002°39'917.2
2017-Oct-15 08:01N 50°04' W 002°26'816.7
2017-Oct-15 07:31N 50°06' W 002°14'816.0
2017-Oct-15 06:59N 50°08' W 002°01'915.3
2017-Oct-15 06:24N 50°11' W 001°48'614.8
2017-Oct-15 06:00N 50°12' W 001°39'714.5
2017-Oct-15 05:30N 50°14' W 001°28'813.9
2017-Oct-15 04:55N 50°16' W 001°16'613.9
2017-Oct-15 04:30N 50°17' W 001°07'714.1
2017-Oct-15 04:00N 50°19' W 000°56'714.6
2017-Oct-15 03:30N 50°21' W 000°45'714.9
2017-Oct-15 03:00N 50°23' W 000°34'815.4
2017-Oct-15 02:30N 50°25' W 000°22'816.0
2017-Oct-15 02:00N 50°27' W 000°10'816.7
2017-Oct-15 01:30N 50°29' E 000°03'917.1
2017-Oct-15 01:00N 50°31' E 000°16'917.4
2017-Oct-15 00:30N 50°34' E 000°29'917.2
2017-Oct-15 00:00N 50°39' E 000°40'917.5
2017-Oct-14 23:30N 50°44' E 000°50'816.0
2017-Oct-14 23:00N 50°50' E 000°60'714.0
2017-Oct-14 22:30N 50°54' E 001°08'713.4
2017-Oct-14 22:00N 50°59' E 001°16'612.9
2017-Oct-14 21:30N 51°03' E 001°24'612.4
2017-Oct-14 21:00N 51°06' E 001°32'612.1
2017-Oct-14 20:30N 51°10' E 001°39'612.0
2017-Oct-14 20:00N 51°14' E 001°47'612.2
2017-Oct-14 19:30N 51°19' E 001°52'612.5
2017-Oct-14 19:00N 51°25' E 001°57'713.1
2017-Oct-14 18:30N 51°30' E 002°04'815.2
2017-Oct-14 18:00N 51°35' E 002°12'816.1
2017-Oct-14 17:30N 51°42' E 002°20'917.3
2017-Oct-14 17:00N 51°49' E 002°28'917.6
2017-Oct-14 16:30N 51°56' E 002°38'917.7
2017-Oct-14 16:00N 52°02' E 002°47'917.6
2017-Oct-14 15:30N 52°09' E 002°56'917.5
2017-Oct-14 15:00N 52°16' E 003°05'917.1
2017-Oct-14 14:30N 52°22' E 003°14'916.8
2017-Oct-14 14:00N 52°30' E 003°21'816.3
2017-Oct-14 13:29N 52°36' E 003°29'816.0
2017-Oct-14 13:00N 52°42' E 003°37'815.7
2017-Oct-14 12:30N 52°48' E 003°46'815.5
2017-Oct-14 12:00N 52°54' E 003°54'815.3
2017-Oct-14 11:30N 52°59' E 004°04'815.1
2017-Oct-14 11:00N 53°04' E 004°13'815.1
2017-Oct-14 10:30N 53°09' E 004°22'714.8
2017-Oct-14 10:00N 53°16' E 004°28'815.5
2017-Oct-14 09:30N 53°23' E 004°33'815.4
2017-Oct-14 09:00N 53°29' E 004°40'816.2
2017-Oct-14 08:30N 53°32' E 004°53'816.5
2017-Oct-14 08:00N 53°36' E 005°06'916.5
2017-Oct-14 07:29N 53°39' E 005°19'816.5
2017-Oct-14 06:59N 53°41' E 005°33'4212.9
2017-Oct-14 03:43N 53°33' E 006°42'313.2
2017-Oct-14 03:30N 53°31' E 006°46'612.4
2017-Oct-14 03:00N 53°27' E 006°53'510.1
2017-Oct-14 02:30N 53°23' E 006°58'4 8.0
2017-Oct-14 02:00N 53°19' E 007°02'4 8.0
2017-Oct-14 01:30N 53°20' E 007°09'1 1.0
2017-Oct-14 01:00N 53°20' E 007°10'0 0.0
2017-Oct-14 00:30N 53°20' E 007°10'0 0.0
2017-Oct-14 00:00N 53°20' E 007°10'0 0.0
2017-Oct-13 23:27N 53°20' E 007°10'0 0.0
2017-Oct-13 23:00N 53°20' E 007°10'0 0.0
2017-Oct-13 22:30N 53°20' E 007°10'0 0.0
2017-Oct-13 22:00N 53°20' E 007°10'0 0.0
2017-Oct-13 21:30N 53°20' E 007°10'0 0.0
2017-Oct-13 21:00N 53°20' E 007°10'0 0.0
2017-Oct-13 20:30N 53°20' E 007°10'0 0.0
2017-Oct-13 20:00N 53°20' E 007°10'0 0.0
2017-Oct-13 19:30N 53°20' E 007°10'0 0.0
2017-Oct-13 19:00N 53°20' E 007°10'0 0.0
2017-Oct-13 18:30N 53°20' E 007°10'0 0.0
2017-Oct-13 18:00N 53°20' E 007°10'0 0.0
2017-Oct-13 17:30N 53°20' E 007°10'0 0.0
2017-Oct-13 17:00N 53°20' E 007°10'0 0.0
2017-Oct-13 16:30N 53°20' E 007°10'0 0.0
2017-Oct-13 16:00N 53°20' E 007°10'0 0.0
2017-Oct-13 15:30N 53°20' E 007°10'0 0.0
2017-Oct-13 15:00N 53°20' E 007°10'0 0.0
2017-Oct-13 14:30N 53°20' E 007°10'0 0.0
2017-Oct-13 13:57N 53°20' E 007°10'0 0.0
2017-Oct-13 13:27N 53°20' E 007°10'0 0.0
2017-Oct-13 13:00N 53°20' E 007°10'0 0.0
2017-Oct-13 12:30N 53°20' E 007°10'0 0.0
2017-Oct-13 12:00N 53°20' E 007°10'0 0.0
2017-Oct-13 11:27N 53°20' E 007°10'0 0.0
2017-Oct-13 11:00N 53°20' E 007°10'0 0.0
2017-Oct-13 10:30N 53°20' E 007°10'0 0.0
2017-Oct-13 10:00N 53°20' E 007°10'0 0.0
2017-Oct-13 09:30N 53°20' E 007°10'0 0.0
2017-Oct-13 09:00N 53°20' E 007°10'0 0.0
2017-Oct-13 08:30N 53°20' E 007°10'0 0.0
2017-Oct-13 08:00N 53°20' E 007°10'0 0.0
2017-Oct-13 07:30N 53°20' E 007°10'0 0.0
2017-Oct-13 07:00N 53°20' E 007°10'0 0.0
2017-Oct-13 06:27N 53°20' E 007°10'0 0.0
2017-Oct-13 06:00N 53°20' E 007°10'0 0.0
2017-Oct-13 05:30N 53°20' E 007°10'0 0.0
2017-Oct-13 05:00N 53°20' E 007°10'0 0.0
2017-Oct-13 04:30N 53°20' E 007°10'0 0.0
2017-Oct-13 03:57N 53°20' E 007°10'0 0.0
2017-Oct-13 03:30N 53°20' E 007°10'0 0.0
2017-Oct-13 03:00N 53°20' E 007°10'0 0.0
2017-Oct-13 02:30N 53°20' E 007°10'0 0.0
2017-Oct-13 01:57N 53°20' E 007°10'0 0.0
2017-Oct-13 01:30N 53°20' E 007°10'0 0.0
2017-Oct-13 01:00N 53°20' E 007°10'0 0.0
2017-Oct-13 00:30N 53°20' E 007°10'0 0.0
2017-Oct-13 00:00N 53°20' E 007°10'0 0.0
2017-Oct-12 23:30N 53°20' E 007°10'0 0.0
2017-Oct-12 23:00N 53°20' E 007°10'0 0.0
2017-Oct-12 22:30N 53°20' E 007°10'0 0.0
2017-Oct-12 22:00N 53°20' E 007°10'0 0.0
2017-Oct-12 21:30N 53°20' E 007°10'0 0.0
2017-Oct-12 21:00N 53°20' E 007°10'0 0.0
2017-Oct-12 20:30N 53°20' E 007°10'0 0.0
2017-Oct-12 20:00N 53°20' E 007°10'0 0.0
2017-Oct-12 19:30N 53°20' E 007°10'0 0.0
2017-Oct-12 19:00N 53°20' E 007°10'0 0.0
2017-Oct-12 18:30N 53°20' E 007°10'0 0.0
2017-Oct-12 18:00N 53°20' E 007°10'0 0.0
2017-Oct-12 17:27N 53°20' E 007°10'0 0.0
2017-Oct-12 17:00N 53°20' E 007°10'0 0.0
2017-Oct-12 16:30N 53°20' E 007°10'0 0.0
2017-Oct-12 16:00N 53°20' E 007°10'0 0.0
2017-Oct-12 15:30N 53°20' E 007°10'0 0.0
2017-Oct-12 15:00N 53°20' E 007°10'0 0.0
2017-Oct-12 14:30N 53°20' E 007°10'0 0.0
2017-Oct-12 14:00N 53°20' E 007°10'0 0.0
2017-Oct-12 13:30N 53°20' E 007°10'0 0.0
2017-Oct-12 12:57N 53°20' E 007°10'0 0.0
2017-Oct-12 12:30N 53°20' E 007°10'0 0.0
2017-Oct-12 11:51N 53°20' E 007°10'0 0.0
2017-Oct-12 11:30N 53°20' E 007°10'0 0.0
2017-Oct-12 11:00N 53°20' E 007°10'0 0.0
2017-Oct-12 10:30N 53°20' E 007°10'0 0.0
2017-Oct-12 10:00N 53°20' E 007°10'0 0.0
2017-Oct-12 09:30N 53°20' E 007°10'0 0.0
2017-Oct-12 09:00N 53°20' E 007°10'0 0.0
2017-Oct-12 08:30N 53°20' E 007°10'0 0.0
2017-Oct-12 07:57N 53°20' E 007°10'0 0.0
2017-Oct-12 07:30N 53°20' E 007°10'0 0.0
2017-Oct-12 07:00N 53°20' E 007°10'0 0.0
2017-Oct-12 06:30N 53°20' E 007°10'0 0.0
2017-Oct-12 06:00N 53°20' E 007°10'0 0.0
2017-Oct-12 05:27N 53°20' E 007°10'0 0.0
2017-Oct-12 05:00N 53°20' E 007°10'0 0.0
2017-Oct-12 04:27N 53°20' E 007°10'0 0.0
2017-Oct-12 04:00N 53°20' E 007°10'0 0.0
2017-Oct-12 03:30N 53°20' E 007°10'0 0.2
2017-Oct-12 03:00N 53°20' E 007°10'3 6.7
2017-Oct-12 02:31N 53°20' E 007°04'4 8.9
2017-Oct-12 02:00N 53°22' E 006°58'510.7
2017-Oct-12 01:31N 53°27' E 006°54'611.1
2017-Oct-12 01:01N 53°31' E 006°47'45 1.4
2017-Oct-10 17:10N 53°35' E 005°32'315.9
2017-Oct-10 16:59N 53°35' E 005°27'815.7
2017-Oct-10 16:30N 53°32' E 005°16'815.8
2017-Oct-10 16:00N 53°28' E 005°04'815.8
2017-Oct-10 15:30N 53°26' E 004°51'715.0
2017-Oct-10 15:00N 53°22' E 004°41'1615.8
2017-Oct-10 14:00N 53°07' E 004°29'815.8
2017-Oct-10 13:30N 53°01' E 004°23'815.8
2017-Oct-10 13:00N 52°53' E 004°17'815.7
2017-Oct-10 12:30N 52°47' E 004°10'815.7
2017-Oct-10 12:00N 52°41' E 004°01'815.6
2017-Oct-10 11:30N 52°35' E 003°52'815.6
2017-Oct-10 11:00N 52°30' E 003°44'1115.6
2017-Oct-10 10:19N 52°22' E 003°32'5615.2
2017-Oct-10 06:39N 51°41' E 002°29'214.5
2017-Oct-10 06:29N 51°39' E 002°27'714.7
2017-Oct-10 06:01N 51°34' E 002°19'815.1
2017-Oct-10 05:31N 51°28' E 002°11'714.3
2017-Oct-10 05:00N 51°22' E 002°08'714.0
2017-Oct-10 04:31N 51°15' E 002°07'815.8
2017-Oct-10 04:00N 51°11' E 001°56'816.0
2017-Oct-10 03:31N 51°06' E 001°45'816.2
2017-Oct-10 03:01N 51°00' E 001°36'816.6
2017-Oct-10 02:30N 50°54' E 001°28'816.2
2017-Oct-10 02:00N 50°46' E 001°24'816.4
2017-Oct-10 01:30N 50°39' E 001°18'1018.6
2017-Oct-10 00:58N 50°32' E 001°06'918.2
2017-Oct-10 00:30N 50°28' E 000°54'918.8
2017-Oct-10 00:00N 50°25' E 000°40'919.3
2017-Oct-09 23:31N 50°23' E 000°26'1019.7
2017-Oct-09 23:00N 50°21' E 000°11'1019.6
2017-Oct-09 22:31N 50°17' W 000°03'1019.7
2017-Oct-09 22:01N 50°15' W 000°18'8417.3
2017-Oct-09 17:08N 49°53' W 002°26'514.2
2017-Oct-09 16:47N 49°52' W 002°33'414.1
2017-Oct-09 16:29N 49°51' W 002°39'714.3
2017-Oct-09 16:00N 49°49' W 002°49'714.5
2017-Oct-09 15:30N 49°47' W 003°00'714.8
2017-Oct-09 15:00N 49°46' W 003°11'715.0
2017-Oct-09 14:31N 49°45' W 003°23'815.2
2017-Oct-09 13:58N 49°44' W 003°35'715.3
2017-Oct-09 13:30N 49°43' W 003°46'815.4
2017-Oct-09 12:59N 49°42' W 003°59'815.5
2017-Oct-09 12:29N 49°41' W 004°11'715.5
2017-Oct-09 12:00N 49°40' W 004°22'815.7
2017-Oct-09 11:30N 49°39' W 004°34'815.9
2017-Oct-09 11:00N 49°39' W 004°46'816.1
2017-Oct-09 10:30N 49°37' W 004°59'816.6
2017-Oct-09 10:00N 49°37' W 005°11'917.0
2017-Oct-09 09:30N 49°37' W 005°25'1017.3
2017-Oct-09 08:55N 49°37' W 005°40'1117.5
2017-Oct-09 08:18N 49°37' W 005°57'617.8
2017-Oct-09 07:57N 49°37' W 006°06'1217.7
2017-Oct-09 07:16N 49°37' W 006°25'717.6
2017-Oct-09 06:53N 49°37' W 006°35'818.0
2017-Oct-09 06:26N 49°35' W 006°48'817.9
2017-Oct-09 06:00N 49°34' W 006°59'917.9
2017-Oct-09 05:29N 49°32' W 007°13'917.7
2017-Oct-09 05:00N 49°30' W 007°26'917.7
2017-Oct-09 04:29N 49°28' W 007°40'  

Dump ship's entire track history